createdAt,value
2023-02-11T00:01:09.722Z,22.90
2023-02-11T00:03:38.809Z,23.87
2023-02-11T00:06:10.170Z,22.90
2023-02-11T00:08:39.498Z,22.87
2023-02-11T00:11:07.847Z,21.87
2023-02-11T00:13:36.017Z,23.63
2023-02-11T00:16:09.359Z,21.17
2023-02-11T00:18:37.663Z,22.90
2023-02-11T00:21:09.778Z,23.30
2023-02-11T00:23:38.164Z,22.13
2023-02-11T00:26:13.684Z,20.00
2023-02-11T00:28:44.040Z,23.33
2023-02-11T00:31:14.526Z,24.30
2023-02-11T00:33:43.031Z,23.53
2023-02-11T00:36:15.120Z,23.67
2023-02-11T00:38:44.219Z,22.43
2023-02-11T00:41:13.082Z,25.13
2023-02-11T00:43:41.736Z,22.73
2023-02-11T00:46:10.730Z,21.70
2023-02-11T00:48:40.915Z,23.00
2023-02-11T00:51:10.020Z,25.60
2023-02-11T00:53:39.268Z,22.97
2023-02-11T00:56:07.883Z,24.23
2023-02-11T00:58:36.117Z,21.43
2023-02-11T01:01:04.826Z,24.43
2023-02-11T01:03:33.685Z,23.30
2023-02-11T01:06:03.908Z,23.07
2023-02-11T01:08:32.464Z,21.80
2023-02-11T01:11:02.837Z,23.37
2023-02-11T01:13:33.085Z,22.87
2023-02-11T01:16:01.349Z,23.90
2023-02-11T01:18:29.582Z,25.00
2023-02-11T01:20:57.794Z,25.70
2023-02-11T01:23:28.664Z,24.00
2023-02-11T01:25:57.686Z,24.47
2023-02-11T01:28:28.903Z,22.97
2023-02-11T01:30:57.674Z,24.03
2023-02-11T01:33:28.070Z,21.90
2023-02-11T01:35:56.317Z,21.57
2023-02-11T01:38:26.804Z,22.23
2023-02-11T01:40:59.977Z,21.53
2023-02-11T01:43:29.906Z,21.37
2023-02-11T01:46:34.594Z,21.47
2023-02-11T01:49:07.294Z,23.93
2023-02-11T01:51:40.156Z,23.77
2023-02-11T01:54:29.414Z,19.07
2023-02-11T01:57:18.510Z,24.70
2023-02-11T01:59:51.316Z,22.60
2023-02-11T02:02:24.796Z,22.90
2023-02-11T02:04:58.658Z,24.40
2023-02-11T02:07:35.684Z,21.37
2023-02-11T02:10:08.648Z,21.47
2023-02-11T02:12:39.102Z,23.77
2023-02-11T02:15:20.265Z,24.10
2023-02-11T02:18:21.427Z,24.03
2023-02-11T02:21:30.771Z,22.57
2023-02-11T02:24:14.215Z,22.47
2023-02-11T02:27:03.689Z,22.07
2023-02-11T02:30:12.072Z,24.97
2023-02-11T02:33:22.760Z,27.13
2023-02-11T02:36:03.915Z,24.17
2023-02-11T02:38:37.408Z,22.60
2023-02-11T02:41:09.597Z,23.47
2023-02-11T02:43:42.977Z,24.30
2023-02-11T02:46:13.158Z,26.70
2023-02-11T02:48:41.403Z,23.10
2023-02-11T02:51:22.196Z,28.57
2023-02-11T02:53:59.304Z,23.83
2023-02-11T02:56:34.556Z,24.87
2023-02-11T02:59:22.558Z,27.67
2023-02-11T03:01:58.985Z,22.50
2023-02-11T03:04:32.383Z,23.70
2023-02-11T03:07:09.986Z,24.70
2023-02-11T03:09:43.792Z,22.70
2023-02-11T03:12:13.932Z,23.87
2023-02-11T03:14:42.627Z,23.63
2023-02-11T03:17:11.408Z,25.63
2023-02-11T03:19:42.341Z,23.03
2023-02-11T03:22:17.747Z,25.77
2023-02-11T03:24:46.901Z,24.80
2023-02-11T03:27:21.552Z,24.80
2023-02-11T03:29:54.675Z,23.40
2023-02-11T03:32:28.452Z,23.20
2023-02-11T03:35:00.111Z,23.37
2023-02-11T03:37:34.800Z,23.23
2023-02-11T03:40:06.200Z,22.17
2023-02-11T03:42:40.404Z,24.30
2023-02-11T03:45:11.844Z,21.10
2023-02-11T03:47:44.567Z,23.87
2023-02-11T03:50:15.644Z,22.17
2023-02-11T03:52:47.773Z,26.47
2023-02-11T03:55:19.463Z,23.87
2023-02-11T03:57:48.681Z,24.33
2023-02-11T04:00:17.130Z,22.97
2023-02-11T04:02:46.079Z,23.83
2023-02-11T04:05:17.062Z,24.27
2023-02-11T04:07:46.812Z,22.00
2023-02-11T04:10:15.206Z,25.33
2023-02-11T04:12:43.430Z,26.13
2023-02-11T04:15:11.626Z,23.63
2023-02-11T04:17:39.788Z,24.00
2023-02-11T04:20:08.672Z,26.17
2023-02-11T04:22:37.116Z,25.60
2023-02-11T04:25:07.816Z,24.20
2023-02-11T04:27:36.051Z,28.10
2023-02-11T04:30:04.622Z,27.30
2023-02-11T04:32:32.781Z,23.80
2023-02-11T04:35:01.100Z,24.77
2023-02-11T04:37:29.277Z,26.67
2023-02-11T04:39:57.845Z,25.37
2023-02-11T04:42:27.397Z,25.80
2023-02-11T04:44:55.535Z,27.63
2023-02-11T04:47:23.734Z,27.00
2023-02-11T04:49:51.920Z,26.80
2023-02-11T04:52:20.174Z,23.87
2023-02-11T04:54:48.333Z,26.23
2023-02-11T04:57:16.760Z,18.67
2023-02-11T04:59:46.251Z,26.77
2023-02-11T05:02:14.480Z,24.77
2023-02-11T05:04:42.674Z,25.30
2023-02-11T05:07:11.138Z,25.87
2023-02-11T05:09:39.403Z,24.70
2023-02-11T05:12:08.278Z,30.93
2023-02-11T05:14:36.555Z,25.90
2023-02-11T05:17:06.168Z,26.57
2023-02-11T05:19:34.586Z,25.03
2023-02-11T05:22:03.767Z,30.30
2023-02-11T05:24:32.469Z,31.00
2023-02-11T05:27:01.044Z,25.90
2023-02-11T05:29:29.543Z,28.93
2023-02-11T05:31:59.226Z,27.77
2023-02-11T05:34:28.754Z,27.70
2023-02-11T05:36:57.030Z,30.17
2023-02-11T05:39:25.262Z,28.40
2023-02-11T05:41:53.437Z,29.70
2023-02-11T05:44:22.046Z,28.60
2023-02-11T05:46:50.289Z,27.27
2023-02-11T05:49:19.148Z,29.17
2023-02-11T05:51:48.694Z,29.63
2023-02-11T05:54:17.759Z,31.07
2023-02-11T05:56:45.912Z,28.90
2023-02-11T05:59:15.302Z,25.30
2023-02-11T06:01:43.565Z,32.27
2023-02-11T06:04:11.811Z,29.50
2023-02-11T06:06:40.447Z,30.97
2023-02-11T06:09:10.745Z,29.90
2023-02-11T06:11:39.375Z,31.10
2023-02-11T06:14:07.591Z,32.30
2023-02-11T06:16:35.795Z,31.27
2023-02-11T06:19:04.117Z,31.83
2023-02-11T06:21:43.287Z,30.47
2023-02-11T06:24:13.781Z,30.00
2023-02-11T06:26:42.136Z,28.87
2023-02-11T06:29:10.319Z,31.90
2023-02-11T06:31:39.670Z,30.70
2023-02-11T06:34:08.124Z,31.17
2023-02-11T06:36:36.743Z,31.60
2023-02-11T06:39:05.541Z,31.17
2023-02-11T06:41:35.061Z,31.97
2023-02-11T06:44:03.219Z,32.13
2023-02-11T06:46:31.522Z,32.53
2023-02-11T06:48:59.727Z,31.20
2023-02-11T06:51:28.378Z,33.83
2023-02-11T06:53:56.685Z,31.83
2023-02-11T06:56:27.335Z,35.43
2023-02-11T06:58:57.482Z,33.20
2023-02-11T07:01:27.182Z,31.57
2023-02-11T07:03:55.910Z,34.47
2023-02-11T07:06:27.231Z,32.13
2023-02-11T07:08:56.500Z,31.23
2023-02-11T07:11:26.477Z,33.87
2023-02-11T07:14:00.851Z,34.97
2023-02-11T07:16:29.240Z,37.30
2023-02-11T07:18:57.466Z,36.30
2023-02-11T07:21:25.832Z,33.73
2023-02-11T07:23:54.718Z,33.83
2023-02-11T07:26:25.756Z,37.67
2023-02-11T07:28:54.313Z,34.90
2023-02-11T07:31:26.934Z,35.90
2023-02-11T07:33:57.001Z,36.00
2023-02-11T07:36:25.410Z,36.10
2023-02-11T07:38:53.664Z,35.90
2023-02-11T07:41:24.698Z,34.80
2023-02-11T07:43:53.551Z,37.23
2023-02-11T07:46:25.288Z,35.10
2023-02-11T07:48:53.951Z,39.13
2023-02-11T07:51:24.058Z,38.83
2023-02-11T07:53:52.653Z,30.57
2023-02-11T07:56:21.530Z,36.27
2023-02-11T07:58:50.868Z,32.73
2023-02-11T08:01:25.025Z,36.70
2023-02-11T08:03:56.161Z,34.83
2023-02-11T08:06:26.527Z,37.33
2023-02-11T08:08:54.940Z,37.67
2023-02-11T08:11:25.196Z,32.77
2023-02-11T08:13:53.987Z,34.37
2023-02-11T08:16:25.115Z,39.80
2023-02-11T08:18:57.337Z,37.97
2023-02-11T08:21:26.356Z,40.17
2023-02-11T08:23:55.262Z,37.70
2023-02-11T08:26:26.040Z,31.67
2023-02-11T08:28:55.937Z,38.07
2023-02-11T08:31:26.168Z,36.40
2023-02-11T08:33:58.152Z,30.20
2023-02-11T08:36:28.540Z,34.60
2023-02-11T08:39:12.224Z,34.83
2023-02-11T08:41:46.663Z,39.93
2023-02-11T08:44:14.933Z,29.00
2023-02-11T08:46:43.403Z,30.57
2023-02-11T08:49:13.011Z,36.77
2023-02-11T08:51:41.186Z,33.80
2023-02-11T08:54:10.076Z,34.10
2023-02-11T08:56:39.416Z,39.50
2023-02-11T08:59:09.209Z,38.57
2023-02-11T09:01:37.594Z,33.27
2023-02-11T09:04:06.137Z,36.10
2023-02-11T09:06:35.711Z,36.47
2023-02-11T09:09:03.899Z,35.73
2023-02-11T09:11:34.848Z,37.43
2023-02-11T09:14:04.352Z,35.93
2023-02-11T09:16:34.919Z,36.30
2023-02-11T09:19:06.399Z,39.17
2023-02-11T09:21:35.947Z,37.80
2023-02-11T09:24:04.348Z,37.03
2023-02-11T09:26:34.591Z,35.60
2023-02-11T09:29:04.426Z,32.43
2023-02-11T09:31:34.817Z,37.13
2023-02-11T09:34:05.518Z,34.53
2023-02-11T09:36:38.406Z,39.17
2023-02-11T09:39:08.483Z,40.70
2023-02-11T09:41:48.813Z,35.43
2023-02-11T09:44:23.344Z,32.70
2023-02-11T09:46:57.813Z,38.83
2023-02-11T09:49:31.872Z,37.57
2023-02-11T09:52:06.405Z,38.57
2023-02-11T09:54:40.438Z,37.37
2023-02-11T09:57:22.968Z,34.83
2023-02-11T09:59:57.747Z,37.37
2023-02-11T10:02:35.375Z,27.43
2023-02-11T10:05:18.784Z,32.13
2023-02-11T10:07:56.832Z,30.50
2023-02-11T10:10:41.355Z,32.00
2023-02-11T10:13:37.042Z,33.00
2023-02-11T10:16:19.244Z,32.97
2023-02-11T10:19:11.353Z,34.97
2023-02-11T10:21:51.579Z,33.63
2023-02-11T10:24:21.778Z,34.63
2023-02-11T10:26:50.192Z,38.90
2023-02-11T10:29:34.503Z,34.27
2023-02-11T10:32:08.385Z,33.20
2023-02-11T10:34:42.043Z,31.93
2023-02-11T10:37:12.875Z,31.67
2023-02-11T10:39:42.583Z,29.17
2023-02-11T10:42:13.393Z,32.20
2023-02-11T10:44:52.644Z,30.40
2023-02-11T10:47:23.333Z,29.70
2023-02-11T10:49:51.574Z,31.03
2023-02-11T10:52:24.120Z,32.77
2023-02-11T10:55:02.853Z,36.70
2023-02-11T10:57:37.136Z,26.23
2023-02-11T11:00:10.009Z,36.40
2023-02-11T11:02:44.051Z,33.73
2023-02-11T11:05:18.996Z,33.80
2023-02-11T11:07:54.310Z,33.30
2023-02-11T11:10:43.698Z,32.13
2023-02-11T11:13:28.200Z,32.40
2023-02-11T11:16:16.314Z,32.93
2023-02-11T11:18:46.681Z,30.87
2023-02-11T11:21:17.664Z,33.90
2023-02-11T11:23:52.031Z,31.23
2023-02-11T11:26:22.610Z,28.57
2023-02-11T11:29:02.576Z,29.23
2023-02-11T11:31:34.505Z,27.33
2023-02-11T11:34:17.873Z,27.13
2023-02-11T11:36:46.327Z,28.73
2023-02-11T11:39:25.967Z,27.27
2023-02-11T11:41:58.416Z,26.43
2023-02-11T11:44:32.778Z,25.70
2023-02-11T11:47:24.855Z,27.93
2023-02-11T11:50:12.659Z,30.73
2023-02-11T11:52:47.183Z,30.23
2023-02-11T11:55:21.580Z,26.27
2023-02-11T11:57:51.469Z,28.67
2023-02-11T12:00:22.666Z,20.93
2023-02-11T12:03:28.100Z,27.27
2023-02-11T12:06:22.504Z,24.73
2023-02-11T12:09:02.777Z,26.13
2023-02-11T12:11:40.202Z,23.53
2023-02-11T12:14:24.116Z,24.33
2023-02-11T12:17:01.477Z,24.23
2023-02-11T12:19:46.423Z,22.77
2023-02-11T12:22:28.151Z,20.10
2023-02-11T12:25:08.461Z,28.53
2023-02-11T12:27:47.810Z,26.63
2023-02-11T12:30:33.630Z,23.13
2023-02-11T12:33:09.180Z,21.67
2023-02-11T12:35:48.168Z,22.20
2023-02-11T12:38:33.116Z,26.50
2023-02-11T12:41:13.452Z,24.60
2023-02-11T12:43:43.533Z,24.60
2023-02-11T12:46:35.551Z,20.57
2023-02-11T12:49:27.781Z,24.33
2023-02-11T12:52:13.661Z,19.10
2023-02-11T12:54:47.689Z,19.67
2023-02-11T12:57:21.373Z,24.83
2023-02-11T12:59:56.681Z,23.23
2023-02-11T13:02:32.819Z,23.17
2023-02-11T13:05:05.117Z,22.60
2023-02-11T13:07:37.995Z,24.53
2023-02-11T13:10:17.666Z,24.83
2023-02-11T13:13:06.791Z,21.67
2023-02-11T13:15:35.294Z,20.47
2023-02-11T13:18:13.710Z,20.30
2023-02-11T13:20:49.106Z,19.53
2023-02-11T13:23:25.973Z,17.73
2023-02-11T13:25:59.152Z,17.57
2023-02-11T13:28:40.163Z,15.67
2023-02-11T13:31:09.640Z,17.90
2023-02-11T13:33:43.072Z,15.07
2023-02-11T13:36:15.637Z,19.20
2023-02-11T13:38:53.586Z,19.57
2023-02-11T13:41:27.551Z,18.30
2023-02-11T13:44:01.855Z,17.00
2023-02-11T13:46:48.757Z,16.40
2023-02-11T13:49:24.261Z,16.90
2023-02-11T13:51:54.247Z,13.70
2023-02-11T13:54:27.340Z,15.30
2023-02-11T13:57:26.438Z,15.40
2023-02-11T13:59:56.124Z,16.23
2023-02-11T14:02:51.065Z,16.20
2023-02-11T14:05:56.251Z,19.73
2023-02-11T14:08:43.220Z,15.60
2023-02-11T14:11:49.708Z,17.13
2023-02-11T14:14:23.894Z,15.53
2023-02-11T14:17:21.940Z,15.90
2023-02-11T14:19:52.015Z,17.83
2023-02-11T14:22:25.943Z,14.47
2023-02-11T14:24:57.821Z,17.00
2023-02-11T14:27:35.386Z,15.20
2023-02-11T14:30:15.354Z,16.33
2023-02-11T14:32:58.432Z,15.87
2023-02-11T14:35:33.092Z,16.13
2023-02-11T14:38:10.817Z,16.93
2023-02-11T14:40:47.466Z,16.97
2023-02-11T14:43:21.289Z,15.47
2023-02-11T14:45:52.938Z,16.00
2023-02-11T14:48:23.721Z,16.23
2023-02-11T14:50:54.792Z,16.17
2023-02-11T14:53:26.816Z,14.40
2023-02-11T14:55:57.516Z,15.90
2023-02-11T14:58:29.910Z,15.60
2023-02-11T15:01:00.997Z,15.63
2023-02-11T15:03:32.810Z,15.53
2023-02-11T15:06:04.252Z,14.33
2023-02-11T15:08:38.243Z,12.80
2023-02-11T15:11:12.897Z,11.30
2023-02-11T15:13:47.472Z,14.47
2023-02-11T15:16:19.414Z,17.37
2023-02-11T15:18:51.665Z,16.00
2023-02-11T15:21:24.651Z,15.73
2023-02-11T15:23:59.959Z,13.10
2023-02-11T15:26:29.102Z,14.73
2023-02-11T15:28:57.363Z,13.90
2023-02-11T15:31:27.749Z,15.47
2023-02-11T15:33:56.183Z,15.23
2023-02-11T15:36:28.687Z,15.30
2023-02-11T15:39:31.249Z,12.60
2023-02-11T15:42:21.453Z,12.97
2023-02-11T15:44:56.483Z,14.13
2023-02-11T15:47:30.835Z,13.43
2023-02-11T15:49:59.185Z,13.07
2023-02-11T15:52:29.510Z,13.00
2023-02-11T15:55:02.391Z,12.00
2023-02-11T15:57:30.881Z,13.20
2023-02-11T16:00:04.293Z,13.07
2023-02-11T16:02:45.183Z,12.73
2023-02-11T16:05:28.277Z,11.77
2023-02-11T16:07:57.388Z,10.40
2023-02-11T16:10:30.591Z,11.70
2023-02-11T16:13:19.733Z,11.00
2023-02-11T16:15:52.449Z,11.03
2023-02-11T16:18:37.903Z,13.63
2023-02-11T16:21:13.221Z,9.87
2023-02-11T16:23:43.169Z,11.73
2023-02-11T16:26:23.270Z,11.10
2023-02-11T16:28:52.347Z,11.40
2023-02-11T16:31:20.860Z,12.53
2023-02-11T16:33:49.127Z,10.90
2023-02-11T16:36:18.203Z,12.13
2023-02-11T16:38:46.385Z,10.20
2023-02-11T16:41:15.921Z,11.73
2023-02-11T16:43:44.129Z,9.87
2023-02-11T16:46:15.914Z,9.90
2023-02-11T16:48:44.731Z,9.60
2023-02-11T16:51:13.205Z,11.17
2023-02-11T16:53:41.470Z,10.03
2023-02-11T16:56:15.255Z,10.20
2023-02-11T16:58:45.410Z,9.50
2023-02-11T17:01:14.421Z,10.33
2023-02-11T17:03:43.713Z,9.73
2023-02-11T17:06:13.559Z,9.63
2023-02-11T17:08:41.864Z,9.93
2023-02-11T17:11:10.104Z,12.00
2023-02-11T17:13:39.495Z,10.00
2023-02-11T17:16:16.997Z,9.70
2023-02-11T17:18:45.298Z,10.07
2023-02-11T17:21:13.877Z,11.10
2023-02-11T17:23:42.152Z,11.03
2023-02-11T17:26:10.691Z,9.80
2023-02-11T17:28:39.018Z,9.30
2023-02-11T17:31:09.644Z,10.43
2023-02-11T17:33:39.298Z,8.80
2023-02-11T17:36:09.006Z,10.10
2023-02-11T17:38:38.936Z,10.70
2023-02-11T17:41:07.264Z,9.30
2023-02-11T17:43:35.522Z,8.93
2023-02-11T17:46:07.244Z,9.80
2023-02-11T17:48:35.548Z,9.00
2023-02-11T17:51:05.509Z,9.17
2023-02-11T17:53:33.978Z,8.40
2023-02-11T17:56:06.280Z,8.40
2023-02-11T17:58:34.432Z,8.60
2023-02-11T18:01:02.696Z,6.10
2023-02-11T18:03:30.939Z,8.07
2023-02-11T18:06:01.148Z,8.90
2023-02-11T18:08:31.108Z,8.70
2023-02-11T18:10:59.393Z,8.30
2023-02-11T18:13:28.620Z,9.20
2023-02-11T18:16:02.252Z,10.27
2023-02-11T18:18:30.796Z,8.00
2023-02-11T18:20:59.272Z,7.73
2023-02-11T18:23:28.296Z,7.60
2023-02-11T18:25:57.772Z,7.30
2023-02-11T18:28:26.026Z,7.87
2023-02-11T18:30:58.481Z,7.03
2023-02-11T18:33:27.695Z,8.47
2023-02-11T18:35:56.278Z,8.30
2023-02-11T18:38:25.302Z,9.03
2023-02-11T18:40:53.463Z,7.40
2023-02-11T18:43:23.338Z,7.60
2023-02-11T18:45:52.333Z,7.30
2023-02-11T18:48:20.682Z,8.30
2023-02-11T18:50:48.876Z,6.20
2023-02-11T18:53:17.035Z,7.53
2023-02-11T18:55:46.497Z,7.43
2023-02-11T18:58:15.308Z,7.47
2023-02-11T19:00:47.885Z,6.60
2023-02-11T19:03:16.429Z,7.40
2023-02-11T19:05:45.659Z,7.23
2023-02-11T19:08:14.770Z,7.77
2023-02-11T19:10:44.444Z,7.83
2023-02-11T19:13:13.789Z,6.23
2023-02-11T19:15:42.378Z,9.00
2023-02-11T19:18:13.193Z,7.33
2023-02-11T19:20:41.839Z,6.87
2023-02-11T19:23:10.881Z,6.93
2023-02-11T19:25:39.212Z,6.90
2023-02-11T19:28:07.408Z,6.70
2023-02-11T19:30:36.974Z,7.63
2023-02-11T19:33:05.199Z,6.87
2023-02-11T19:35:36.736Z,6.53
2023-02-11T19:38:05.855Z,8.10
2023-02-11T19:40:34.137Z,6.50
2023-02-11T19:43:02.681Z,6.30
2023-02-11T19:45:31.177Z,7.77
2023-02-11T19:47:59.331Z,7.33
2023-02-11T19:50:27.495Z,7.27
2023-02-11T19:52:57.276Z,6.57
2023-02-11T19:55:25.434Z,6.63
2023-02-11T19:57:53.570Z,6.20
2023-02-11T20:00:22.532Z,6.30
2023-02-11T20:02:50.722Z,6.40
2023-02-11T20:05:19.079Z,6.70
2023-02-11T20:07:47.229Z,6.87
2023-02-11T20:10:18.028Z,6.50
2023-02-11T20:12:46.239Z,6.83
2023-02-11T20:15:14.407Z,6.70
2023-02-11T20:17:42.603Z,7.57
2023-02-11T20:20:12.978Z,7.47
2023-02-11T20:22:41.135Z,7.80
2023-02-11T20:25:10.898Z,6.40
2023-02-11T20:27:41.041Z,6.63
2023-02-11T20:30:10.506Z,5.90
2023-02-11T20:32:38.800Z,5.77
2023-02-11T20:35:09.807Z,5.60
2023-02-11T20:37:39.610Z,5.60
2023-02-11T20:40:08.725Z,6.80
2023-02-11T20:42:36.881Z,6.23
2023-02-11T20:45:06.756Z,8.07
2023-02-11T20:47:34.871Z,6.93
2023-02-11T20:50:03.003Z,7.30
2023-02-11T20:52:31.160Z,6.73
2023-02-11T20:55:00.088Z,6.13
2023-02-11T20:57:28.271Z,7.40
2023-02-11T20:59:56.421Z,5.27
2023-02-11T21:02:25.933Z,6.07
2023-02-11T21:04:54.082Z,7.20
2023-02-11T21:07:22.722Z,6.93
2023-02-11T21:09:51.138Z,5.97
2023-02-11T21:12:19.295Z,6.33
2023-02-11T21:14:48.407Z,6.70
2023-02-11T21:17:17.108Z,7.57
2023-02-11T21:19:46.678Z,6.60
2023-02-11T21:22:16.302Z,6.20
2023-02-11T21:24:44.667Z,5.83
2023-02-11T21:27:12.836Z,6.50
2023-02-11T21:29:53.489Z,8.33
2023-02-11T21:32:22.888Z,7.30
2023-02-11T21:34:52.396Z,6.40
2023-02-11T21:37:23.102Z,5.70
2023-02-11T21:39:51.520Z,5.80
2023-02-11T21:42:19.765Z,6.53
2023-02-11T21:44:47.924Z,6.93
2023-02-11T21:47:16.099Z,5.77
2023-02-11T21:49:44.273Z,7.90
2023-02-11T21:52:13.772Z,6.93
2023-02-11T21:54:42.469Z,6.70
2023-02-11T21:57:11.028Z,8.53
2023-02-11T21:59:39.335Z,6.50
2023-02-11T22:02:07.487Z,6.63
2023-02-11T22:04:36.828Z,6.30
2023-02-11T22:07:05.086Z,6.80
2023-02-11T22:09:34.572Z,7.07
2023-02-11T22:12:02.756Z,6.40
2023-02-11T22:14:32.378Z,7.33
2023-02-11T22:17:00.713Z,7.10
2023-02-11T22:19:29.016Z,7.97
2023-02-11T22:21:57.185Z,7.03
2023-02-11T22:24:25.397Z,7.27
2023-02-11T22:26:54.909Z,7.17
2023-02-11T22:29:23.075Z,7.57
2023-02-11T22:31:51.315Z,8.80
2023-02-11T22:34:19.560Z,8.03
2023-02-11T22:36:47.724Z,8.70
2023-02-11T22:39:17.484Z,7.03
2023-02-11T22:41:47.291Z,7.30
2023-02-11T22:44:17.636Z,7.00
2023-02-11T22:46:45.771Z,7.17
2023-02-11T22:49:16.310Z,7.00
2023-02-11T22:51:44.766Z,7.80
2023-02-11T22:54:15.309Z,6.90
2023-02-11T22:56:44.081Z,7.63
2023-02-11T22:59:14.424Z,6.90
2023-02-11T23:01:44.554Z,7.50
2023-02-11T23:04:16.906Z,7.03
2023-02-11T23:06:47.394Z,7.97
2023-02-11T23:09:15.625Z,7.33
2023-02-11T23:11:44.144Z,7.10
2023-02-11T23:14:12.598Z,6.70
2023-02-11T23:16:41.256Z,6.60
2023-02-11T23:19:12.311Z,7.97
2023-02-11T23:21:40.734Z,7.60
2023-02-11T23:24:11.993Z,7.27
2023-02-11T23:26:40.988Z,7.10
2023-02-11T23:29:09.767Z,6.67
2023-02-11T23:31:40.704Z,6.70
2023-02-11T23:34:10.660Z,6.00
2023-02-11T23:36:39.003Z,7.53
2023-02-11T23:39:07.181Z,6.70
2023-02-11T23:41:35.519Z,6.50
2023-02-11T23:44:03.966Z,7.13
2023-02-11T23:46:32.178Z,6.40
2023-02-11T23:49:01.183Z,7.00
2023-02-11T23:51:30.974Z,7.27
2023-02-11T23:53:59.184Z,8.13
2023-02-11T23:56:28.753Z,6.87
2023-02-11T23:58:59.104Z,6.30
